Time;durP1;ratioP1;P1;durP2;ratioP2;P2;SDS_P1;SDS_P2;PMS_P1;PMS_P2;Temp;Humidity;BMP_temperature;BMP_pressure;BME280_temperature;BME280_humidity;BME280_pressure;Samples;Min_cycle;Max_cycle;Signal;HPM_P1;HPM_P2
2023/07/01 00:01:29;;;;;;;9.03;8.33;;;19.40;29.60;;;;;;5012152;28;20427;-77
2023/07/01 00:03:55;;;;;;;9.03;8.33;;;19.40;29.60;;;;;;5014226;28;20656;-78
2023/07/01 00:06:20;;;;;;;8.43;8.03;;;19.30;29.60;;;;;;5013447;28;20458;-76
2023/07/01 00:08:47;;;;;;;8.57;8.10;;;19.20;29.50;;;;;;5013083;28;20187;-76
2023/07/01 00:11:13;;;;;;;8.73;8.23;;;19.10;29.60;;;;;;5012837;28;20178;-76
2023/07/01 00:13:38;;;;;;;9.60;8.63;;;19.10;29.90;;;;;;5014805;28;20861;-77
2023/07/01 00:16:04;;;;;;;9.60;8.77;;;19.00;29.90;;;;;;5014433;28;20200;-77
2023/07/01 00:18:30;;;;;;;9.20;8.60;;;19.10;29.50;;;;;;5013266;28;20205;-77
2023/07/01 00:20:58;;;;;;;9.13;8.43;;;19.00;29.30;;;;;;5014257;28;20437;-76
2023/07/01 00:23:24;;;;;;;8.80;8.40;;;19.00;29.30;;;;;;5022560;28;20445;-76
2023/07/01 00:25:50;;;;;;;9.10;8.50;;;19.00;29.30;;;;;;5032415;28;20416;-77
2023/07/01 00:28:15;;;;;;;8.87;8.37;;;19.00;29.30;;;;;;5033890;28;20893;-76
2023/07/01 00:30:41;;;;;;;8.87;8.40;;;19.00;29.30;;;;;;5033928;28;20173;-76
2023/07/01 00:33:06;;;;;;;8.50;8.10;;;19.00;29.30;;;;;;5032762;28;20207;-76
2023/07/01 00:35:32;;;;;;;8.80;8.40;;;19.00;29.30;;;;;;5032823;28;20204;-76
2023/07/01 00:37:58;;;;;;;8.90;8.60;;;18.90;29.20;;;;;;5033575;28;20173;-77
2023/07/01 00:40:24;;;;;;;9.00;8.60;;;18.90;29.30;;;;;;5033450;28;20197;-76
2023/07/01 00:42:49;;;;;;;9.17;8.77;;;18.90;28.90;;;;;;5031822;28;20193;-79
2023/07/01 00:45:15;;;;;;;10.07;9.17;;;18.90;28.60;;;;;;5033343;28;20403;-77
2023/07/01 00:47:41;;;;;;;8.90;8.50;;;18.90;28.30;;;;;;5033256;28;20165;-77
2023/07/01 00:50:12;;;;;;;9.03;8.53;;;18.90;28.50;;;;;;5033030;28;20173;-77
2023/07/01 00:52:38;;;;;;;8.37;7.97;;;19.00;28.30;;;;;;5030340;28;20443;-77
2023/07/01 00:55:08;;;;;;;8.40;7.70;;;18.90;28.10;;;;;;5033160;28;20770;-77
2023/07/01 00:57:34;;;;;;;8.63;8.33;;;18.90;28.30;;;;;;5033004;28;20412;-76
2023/07/01 01:00:08;;;;;;;8.57;8.20;;;18.90;28.50;;;;;;5032465;28;20458;-76
2023/07/01 01:02:45;;;;;;;8.80;8.30;;;18.80;28.50;;;;;;5031848;28;20188;-76
2023/07/01 01:05:17;;;;;;;8.27;7.97;;;18.80;28.50;;;;;;5032542;28;20754;-76
2023/07/01 01:08:14;;;;;;;8.57;7.80;;;18.70;28.30;;;;;;5031063;28;20404;-76
2023/07/01 01:10:42;;;;;;;8.50;8.13;;;18.70;28.60;;;;;;5031696;28;20403;-77
2023/07/01 01:13:08;;;;;;;8.80;8.23;;;18.80;28.70;;;;;;5032250;28;20458;-75
2023/07/01 01:15:34;;;;;;;8.83;8.33;;;18.70;29.10;;;;;;5032681;28;20446;-77
2023/07/01 01:18:05;;;;;;;9.00;8.60;;;18.70;29.10;;;;;;5031138;28;20762;-76
2023/07/01 01:20:33;;;;;;;8.37;7.93;;;18.60;29.00;;;;;;5032673;28;20176;-76
2023/07/01 01:23:05;;;;;;;9.00;8.50;;;18.60;29.20;;;;;;5031617;28;20485;-76
2023/07/01 01:25:42;;;;;;;9.17;8.57;;;18.60;29.50;;;;;;5029843;28;20921;-76
2023/07/01 01:28:08;;;;;;;8.33;8.00;;;18.60;29.90;;;;;;5031372;28;20407;-78
2023/07/01 01:30:34;;;;;;;8.07;7.77;;;18.50;30.10;;;;;;5029712;28;20582;-77
2023/07/01 01:33:01;;;;;;;9.03;8.57;;;18.40;30.40;;;;;;5032302;28;20463;-76
2023/07/01 01:35:26;;;;;;;8.70;8.20;;;18.40;31.00;;;;;;5032696;28;20267;-76
2023/07/01 01:38:06;;;;;;;9.23;8.73;;;18.30;31.20;;;;;;5032405;28;20846;-75
2023/07/01 01:40:41;;;;;;;8.77;8.47;;;18.20;31.70;;;;;;5031342;28;20662;-74
2023/07/01 01:46:29;;;;;;;8.50;8.10;;;18.20;32.20;;;;;;5032714;28;20386;-76
2023/07/01 01:48:56;;;;;;;9.03;8.50;;;18.20;32.70;;;;;;5032566;28;20403;-76
2023/07/01 01:51:24;;;;;;;9.17;8.77;;;18.20;32.60;;;;;;5030409;28;20523;-76
2023/07/01 01:53:51;;;;;;;9.60;8.90;;;18.10;33.00;;;;;;5032326;28;20435;-76
2023/07/01 01:56:18;;;;;;;8.97;8.53;;;18.10;33.30;;;;;;5032132;28;20400;-76
2023/07/01 01:58:44;;;;;;;9.27;8.87;;;18.10;33.50;;;;;;5032303;28;20414;-76
2023/07/01 02:01:09;;;;;;;9.00;8.60;;;18.00;33.40;;;;;;5032191;28;20782;-76
2023/07/01 02:03:35;;;;;;;8.80;8.40;;;18.00;33.70;;;;;;5031342;28;20949;-76
2023/07/01 02:06:00;;;;;;;8.93;8.37;;;17.90;33.90;;;;;;5033292;28;20267;-76
2023/07/01 02:08:26;;;;;;;9.07;8.73;;;17.90;34.30;;;;;;5035561;28;20187;-76
2023/07/01 02:10:51;;;;;;;9.07;8.57;;;17.90;34.30;;;;;;5036057;28;20597;-76
2023/07/01 02:13:17;;;;;;;9.80;9.40;;;17.80;34.80;;;;;;5035166;28;20204;-76
2023/07/01 02:15:43;;;;;;;9.03;8.63;;;17.90;34.60;;;;;;5035270;28;20180;-76
2023/07/01 02:18:08;;;;;;;9.40;9.00;;;17.80;35.20;;;;;;5033321;28;20544;-76
2023/07/01 02:20:34;;;;;;;9.70;9.03;;;17.70;35.30;;;;;;5035410;28;20208;-76
2023/07/01 02:22:59;;;;;;;9.20;8.80;;;17.70;35.40;;;;;;5035435;28;20228;-76
2023/07/01 02:25:25;;;;;;;9.70;9.20;;;17.70;35.50;;;;;;5032719;28;20169;-77
2023/07/01 02:27:50;;;;;;;10.27;9.63;;;17.70;35.60;;;;;;5035658;28;20173;-76
2023/07/01 02:30:16;;;;;;;9.77;9.27;;;17.70;35.80;;;;;;5034855;28;20181;-77
2023/07/01 02:32:42;;;;;;;9.43;9.03;;;17.60;35.50;;;;;;5034949;28;20192;-76
2023/07/01 02:35:07;;;;;;;8.03;7.63;;;17.60;35.60;;;;;;5035894;28;20526;-76
2023/07/01 02:37:33;;;;;;;8.60;8.20;;;17.60;36.50;;;;;;5034603;28;20176;-76
2023/07/01 02:39:58;;;;;;;9.73;9.33;;;17.60;35.90;;;;;;5035633;28;20663;-75
2023/07/01 02:42:24;;;;;;;8.50;8.10;;;17.50;36.00;;;;;;5034216;28;20246;-75
2023/07/01 02:44:50;;;;;;;8.80;8.40;;;17.50;36.30;;;;;;5033206;28;20168;-75
2023/07/01 02:47:16;;;;;;;9.60;9.20;;;17.50;36.50;;;;;;5034858;28;20243;-75
2023/07/01 02:49:42;;;;;;;9.00;8.57;;;17.50;36.60;;;;;;5035053;28;20226;-76
2023/07/01 02:52:09;;;;;;;9.33;8.93;;;17.40;36.60;;;;;;5032563;28;20952;-76
2023/07/01 02:54:38;;;;;;;9.33;8.83;;;17.50;36.30;;;;;;5033577;28;20200;-76
2023/07/01 02:57:08;;;;;;;9.17;8.67;;;17.50;36.40;;;;;;5029470;28;20434;-76
2023/07/01 02:59:34;;;;;;;8.57;8.17;;;17.50;36.60;;;;;;5012714;28;20464;-76
2023/07/01 03:02:00;;;;;;;9.37;8.87;;;17.40;36.40;;;;;;5017894;28;20411;-76
2023/07/01 03:04:25;;;;;;;9.77;9.30;;;17.50;36.60;;;;;;5034789;28;20423;-75
2023/07/01 03:06:51;;;;;;;9.73;9.13;;;17.50;36.40;;;;;;5035596;28;20168;-75
2023/07/01 03:09:16;;;;;;;10.13;9.47;;;17.50;36.50;;;;;;5035570;28;20179;-76
2023/07/01 03:11:42;;;;;;;9.60;9.20;;;17.50;36.50;;;;;;5033775;28;20187;-75
2023/07/01 03:14:07;;;;;;;10.00;9.40;;;17.50;36.70;;;;;;5035111;28;20212;-75
2023/07/01 03:16:33;;;;;;;8.40;8.10;;;17.40;36.80;;;;;;5033661;28;20263;-75
2023/07/01 03:18:59;;;;;;;9.37;8.93;;;17.40;37.00;;;;;;5034544;28;20192;-75
2023/07/01 03:21:25;;;;;;;9.07;8.67;;;17.40;37.50;;;;;;5034909;28;20247;-77
2023/07/01 03:23:51;;;;;;;9.87;9.37;;;17.40;37.40;;;;;;5032938;28;20772;-76
2023/07/01 03:26:16;;;;;;;9.50;9.00;;;17.40;37.40;;;;;;5033142;28;20416;-76
2023/07/01 03:28:42;;;;;;;9.50;8.90;;;17.40;37.30;;;;;;5034848;28;20490;-76
2023/07/01 03:31:08;;;;;;;9.93;9.43;;;17.40;37.40;;;;;;5034856;28;20173;-77
2023/07/01 03:33:34;;;;;;;9.43;9.03;;;17.30;37.50;;;;;;5031950;28;20431;-74
2023/07/01 03:36:00;;;;;;;9.37;8.97;;;17.30;37.70;;;;;;5033770;28;20180;-75
2023/07/01 03:38:25;;;;;;;9.40;8.90;;;17.30;37.60;;;;;;5033734;28;20204;-75
2023/07/01 03:40:51;;;;;;;8.70;8.40;;;17.30;37.80;;;;;;5033625;28;20219;-75
2023/07/01 03:43:17;;;;;;;9.37;8.87;;;17.30;37.90;;;;;;5033310;28;20666;-76
2023/07/01 03:45:42;;;;;;;9.53;9.03;;;17.30;38.00;;;;;;5033291;28;20264;-76
2023/07/01 03:48:08;;;;;;;9.57;9.17;;;17.30;37.90;;;;;;5033980;28;20180;-75
2023/07/01 03:50:33;;;;;;;9.67;9.07;;;17.30;37.90;;;;;;5032099;28;20180;-76
2023/07/01 03:52:59;;;;;;;9.80;9.40;;;17.40;37.80;;;;;;5031729;28;20197;-76
2023/07/01 03:55:25;;;;;;;10.00;9.50;;;17.40;37.30;;;;;;5030426;28;20622;-75
2023/07/01 03:57:51;;;;;;;10.17;9.67;;;17.40;37.30;;;;;;5032929;28;20631;-75
2023/07/01 04:00:21;;;;;;;9.57;9.00;;;17.40;37.50;;;;;;5033768;28;20200;-75
2023/07/01 04:02:48;;;;;;;9.60;9.00;;;17.40;37.40;;;;;;5032477;28;20196;-75
2023/07/01 04:05:15;;;;;;;10.00;9.50;;;17.40;37.40;;;;;;5031167;28;20439;-76
2023/07/01 04:07:42;;;;;;;9.43;8.97;;;17.40;37.40;;;;;;5032243;28;20399;-75
2023/07/01 04:10:08;;;;;;;9.60;9.10;;;17.40;37.50;;;;;;5033098;28;20461;-77
2023/07/01 04:12:35;;;;;;;10.27;9.77;;;17.40;37.20;;;;;;5032670;28;20459;-76
2023/07/01 04:15:02;;;;;;;9.80;9.40;;;17.50;37.00;;;;;;5030829;28;20435;-76
2023/07/01 04:17:29;;;;;;;10.10;9.60;;;17.40;37.00;;;;;;5033122;28;20419;-76
2023/07/01 04:19:55;;;;;;;9.97;9.47;;;17.40;37.00;;;;;;5031776;28;20521;-76
2023/07/01 04:22:21;;;;;;;11.00;10.50;;;17.40;37.00;;;;;;5030357;28;20411;-76
2023/07/01 04:24:47;;;;;;;9.20;8.80;;;17.40;37.00;;;;;;5030669;28;20415;-75
2023/07/01 04:27:12;;;;;;;9.93;9.43;;;17.40;37.10;;;;;;5029849;28;20403;-78
2023/07/01 04:29:38;;;;;;;9.80;9.30;;;17.40;37.10;;;;;;5030196;28;20200;-75
2023/07/01 04:32:03;;;;;;;9.20;8.77;;;17.50;36.70;;;;;;5030536;28;20180;-75
2023/07/01 04:34:29;;;;;;;9.87;9.47;;;17.50;36.40;;;;;;5033695;28;20647;-75
2023/07/01 04:36:54;;;;;;;10.40;9.90;;;17.50;36.40;;;;;;5033225;28;20173;-74
2023/07/01 04:39:23;;;;;;;10.50;9.43;;;17.50;36.40;;;;;;5029163;28;20562;-76
2023/07/01 04:41:49;;;;;;;10.10;9.60;;;17.40;36.80;;;;;;5030424;28;20176;-75
2023/07/01 04:44:15;;;;;;;9.73;9.13;;;17.40;36.80;;;;;;5029759;28;20432;-75
2023/07/01 04:46:40;;;;;;;9.87;9.27;;;17.50;36.80;;;;;;5032877;28;20673;-75
2023/07/01 04:49:08;;;;;;;10.03;9.53;;;17.50;36.90;;;;;;5031807;28;20187;-75
2023/07/01 04:51:37;;;;;;;9.90;9.30;;;17.40;36.70;;;;;;5030206;28;20174;-75
2023/07/01 04:54:04;;;;;;;10.13;9.73;;;17.40;36.60;;;;;;5030828;28;20439;-74
2023/07/01 04:56:30;;;;;;;9.43;8.80;;;17.40;36.30;;;;;;5028209;28;20941;-77
2023/07/01 04:58:55;;;;;;;9.23;8.73;;;17.50;36.60;;;;;;5030469;28;20483;-75
2023/07/01 05:01:21;;;;;;;9.40;8.97;;;17.50;36.50;;;;;;5028968;28;20502;-75
2023/07/01 05:03:46;;;;;;;8.73;8.33;;;17.50;36.50;;;;;;5028804;28;20718;-75
2023/07/01 05:06:12;;;;;;;9.10;8.70;;;17.60;35.90;;;;;;5028048;28;20168;-75
2023/07/01 05:08:37;;;;;;;9.20;8.70;;;17.70;35.80;;;;;;5026723;28;20183;-75
2023/07/01 05:11:03;;;;;;;9.70;9.30;;;17.70;35.10;;;;;;5025108;28;20571;-75
2023/07/01 05:13:29;;;;;;;10.10;9.60;;;17.70;34.50;;;;;;5027445;28;20204;-75
2023/07/01 05:15:54;;;;;;;9.50;9.00;;;17.80;34.40;;;;;;5028083;28;20583;-75
2023/07/01 05:18:20;;;;;;;9.90;9.30;;;17.80;34.50;;;;;;5026860;28;20178;-75
2023/07/01 05:20:45;;;;;;;9.53;9.13;;;17.90;34.20;;;;;;5025663;28;20204;-75
2023/07/01 05:23:11;;;;;;;9.60;9.10;;;17.90;33.90;;;;;;5024858;28;20196;-75
2023/07/01 05:25:37;;;;;;;9.20;8.60;;;17.90;33.90;;;;;;5024150;28;20184;-75
2023/07/01 05:28:02;;;;;;;10.30;9.70;;;18.00;34.20;;;;;;5026530;28;20176;-75
2023/07/01 05:30:28;;;;;;;9.40;8.83;;;18.00;33.70;;;;;;5029236;28;20188;-76
2023/07/01 05:32:53;;;;;;;9.13;8.67;;;18.00;33.30;;;;;;5026307;28;20200;-75
2023/07/01 05:35:19;;;;;;;9.30;8.90;;;18.00;33.40;;;;;;5028335;28;20172;-75
2023/07/01 05:37:45;;;;;;;9.77;9.27;;;18.10;32.80;;;;;;5027578;28;20165;-75
2023/07/01 05:40:12;;;;;;;9.43;9.03;;;18.20;32.40;;;;;;5015465;28;20255;-76
2023/07/01 05:42:38;;;;;;;9.20;8.70;;;18.20;31.70;;;;;;5008293;28;20260;-75
2023/07/01 05:45:04;;;;;;;10.27;9.77;;;18.40;31.70;;;;;;5006691;28;20926;-75
2023/07/01 05:47:31;;;;;;;10.83;10.07;;;18.40;30.80;;;;;;5009481;28;20503;-75
2023/07/01 05:49:56;;;;;;;9.00;8.53;;;18.50;30.10;;;;;;5010126;28;20420;-77
2023/07/01 05:52:22;;;;;;;9.43;9.00;;;18.60;30.00;;;;;;5009464;28;20424;-75
2023/07/01 05:54:47;;;;;;;9.77;9.27;;;18.70;29.20;;;;;;5009189;28;20178;-75
2023/07/01 05:57:14;;;;;;;8.23;7.83;;;18.70;29.10;;;;;;5010494;28;20267;-75
2023/07/01 05:59:40;;;;;;;9.80;9.30;;;18.80;28.70;;;;;;5011769;28;20208;-75
2023/07/01 06:02:06;;;;;;;14.03;9.00;;;18.90;28.20;;;;;;5011387;28;20432;-75
2023/07/01 06:04:31;;;;;;;9.80;9.30;;;19.00;28.00;;;;;;5011814;28;20173;-75
2023/07/01 06:06:57;;;;;;;9.43;9.03;;;19.00;27.60;;;;;;5010410;28;20427;-75
2023/07/01 06:09:22;;;;;;;9.33;8.93;;;19.20;27.40;;;;;;5012785;28;20188;-75
2023/07/01 06:11:48;;;;;;;9.80;9.10;;;19.30;27.00;;;;;;5012187;28;20188;-74
2023/07/01 06:14:13;;;;;;;8.93;8.50;;;19.30;26.30;;;;;;5012566;28;20260;-76
2023/07/01 06:16:39;;;;;;;8.67;8.20;;;19.40;26.60;;;;;;5018521;28;20231;-76
2023/07/01 06:19:05;;;;;;;9.03;8.63;;;19.40;25.70;;;;;;5021757;28;20201;-75
2023/07/01 06:21:30;;;;;;;8.87;8.57;;;19.40;24.80;;;;;;5026215;28;20181;-76
2023/07/01 06:23:56;;;;;;;9.40;9.00;;;19.40;24.00;;;;;;5030329;28;20437;-75
2023/07/01 06:26:22;;;;;;;8.87;8.27;;;19.50;24.30;;;;;;5020068;28;20249;-75
2023/07/01 06:28:48;;;;;;;9.50;8.90;;;19.50;23.20;;;;;;5014395;28;20197;-76
2023/07/01 06:31:13;;;;;;;8.83;8.40;;;19.60;23.70;;;;;;5016556;28;20417;-75
2023/07/01 06:33:39;;;;;;;8.70;8.30;;;19.60;23.50;;;;;;5016077;28;20288;-76
2023/07/01 06:36:06;;;;;;;9.10;8.70;;;19.60;22.60;;;;;;5017489;28;20251;-75
2023/07/01 06:38:31;;;;;;;8.20;7.77;;;19.70;22.30;;;;;;5011802;28;20656;-75
2023/07/01 06:40:57;;;;;;;8.53;8.20;;;19.80;22.30;;;;;;5013436;28;20467;-75
2023/07/01 06:43:22;;;;;;;7.90;7.47;;;19.80;21.80;;;;;;5012850;28;20679;-75
2023/07/01 06:45:48;;;;;;;9.27;8.40;;;19.90;21.60;;;;;;5011687;28;20177;-76
2023/07/01 06:48:13;;;;;;;7.77;7.30;;;20.00;21.10;;;;;;5012293;28;20169;-77
2023/07/01 06:50:39;;;;;;;8.23;7.73;;;20.00;20.40;;;;;;5011908;28;20184;-75
2023/07/01 06:53:04;;;;;;;8.43;8.07;;;20.10;20.30;;;;;;5014771;28;20216;-75
2023/07/01 06:55:30;;;;;;;7.90;7.60;;;20.20;20.60;;;;;;5015381;28;20212;-75
2023/07/01 06:57:56;;;;;;;8.10;7.70;;;20.10;19.10;;;;;;5015427;28;20177;-75
2023/07/01 07:00:22;;;;;;;8.70;8.30;;;20.10;19.80;;;;;;5015045;28;20197;-76
2023/07/01 07:02:48;;;;;;;8.20;7.53;;;20.10;19.10;;;;;;5014513;28;20463;-75
2023/07/01 07:05:13;;;;;;;8.40;7.80;;;20.20;17.60;;;;;;5013702;28;20452;-76
2023/07/01 07:07:39;;;;;;;8.30;8.00;;;20.30;17.60;;;;;;5014321;28;20645;-76
2023/07/01 07:10:05;;;;;;;7.53;6.93;;;20.40;17.90;;;;;;5015344;28;20223;-75
2023/07/01 07:12:31;;;;;;;8.20;7.70;;;20.40;18.70;;;;;;5014619;28;20774;-76
2023/07/01 07:14:57;;;;;;;8.37;7.67;;;20.40;18.90;;;;;;5012962;28;20436;-76
2023/07/01 07:17:22;;;;;;;9.10;8.60;;;20.40;19.80;;;;;;5015007;28;20174;-76
2023/07/01 07:19:48;;;;;;;7.97;7.67;;;20.40;20.10;;;;;;5012338;28;20254;-76
2023/07/01 07:22:13;;;;;;;8.10;7.67;;;20.40;20.00;;;;;;5012474;28;20674;-79
2023/07/01 07:24:39;;;;;;;7.83;7.53;;;20.40;18.60;;;;;;5014024;28;20173;-76
2023/07/01 07:27:05;;;;;;;7.40;7.10;;;20.40;19.00;;;;;;5013502;28;20208;-78
2023/07/01 07:29:31;;;;;;;8.13;7.57;;;20.50;18.80;;;;;;5013829;28;20177;-75
2023/07/01 07:31:57;;;;;;;8.20;7.67;;;20.60;17.10;;;;;;5014049;28;20415;-76
2023/07/01 07:34:23;;;;;;;7.60;7.30;;;20.70;17.10;;;;;;5014907;28;20189;-76
2023/07/01 07:36:49;;;;;;;8.23;7.83;;;20.80;17.30;;;;;;5012680;28;20185;-77
2023/07/01 07:39:15;;;;;;;8.20;7.90;;;20.90;17.10;;;;;;5014676;28;20965;-75
2023/07/01 07:41:41;;;;;;;7.60;7.10;;;20.90;17.00;;;;;;5014010;28;20193;-76
2023/07/01 07:44:07;;;;;;;7.57;7.20;;;21.00;16.60;;;;;;5012738;28;20267;-76
2023/07/01 07:46:38;;;;;;;7.03;6.63;;;21.10;16.70;;;;;;5014719;28;20416;-77
2023/07/01 07:49:04;;;;;;;7.37;7.07;;;21.10;16.30;;;;;;5014847;28;20451;-76
2023/07/01 07:51:30;;;;;;;7.53;7.23;;;21.10;16.20;;;;;;5012213;28;20456;-78
2023/07/01 07:53:56;;;;;;;7.03;6.73;;;21.30;15.90;;;;;;5013105;28;20486;-76
2023/07/01 07:56:21;;;;;;;7.37;6.90;;;21.30;15.70;;;;;;5014611;28;20416;-75
2023/07/01 07:58:47;;;;;;;6.70;6.43;;;21.30;15.80;;;;;;5013907;28;20541;-77
2023/07/01 08:01:13;;;;;;;7.37;6.87;;;21.30;15.70;;;;;;5013994;28;20583;-76
2023/07/01 08:03:41;;;;;;;8.10;7.20;;;21.30;16.70;;;;;;5012914;28;20189;-77
2023/07/01 08:06:07;;;;;;;7.87;7.40;;;21.40;16.00;;;;;;5014293;28;20387;-76
2023/07/01 08:08:33;;;;;;;6.77;6.30;;;21.40;16.20;;;;;;5013466;28;20962;-76
2023/07/01 08:10:59;;;;;;;7.47;7.10;;;21.50;16.30;;;;;;5013553;28;20220;-77
2023/07/01 08:13:25;;;;;;;7.00;6.70;;;21.60;16.90;;;;;;5013269;28;20451;-76
2023/07/01 08:15:50;;;;;;;7.27;6.80;;;21.60;16.70;;;;;;5014176;28;20181;-76
2023/07/01 08:18:16;;;;;;;7.57;7.27;;;21.50;17.10;;;;;;5013158;28;20203;-75
2023/07/01 08:20:43;;;;;;;6.73;6.40;;;21.60;17.00;;;;;;5012944;28;20235;-75
2023/07/01 08:23:09;;;;;;;8.30;6.87;;;21.70;17.00;;;;;;5012337;28;20212;-76
2023/07/01 08:25:36;;;;;;;7.43;7.10;;;21.80;16.70;;;;;;5013800;28;20508;-76
2023/07/01 08:28:01;;;;;;;7.07;6.60;;;21.90;16.10;;;;;;5013126;28;20174;-76
2023/07/01 08:30:27;;;;;;;7.27;6.97;;;22.00;15.10;;;;;;5013510;28;20773;-75
2023/07/01 08:32:52;;;;;;;7.80;7.40;;;21.90;15.40;;;;;;5012970;28;20536;-75
2023/07/01 08:35:18;;;;;;;7.30;7.00;;;21.80;15.50;;;;;;5012028;28;20345;-76
2023/07/01 08:37:43;;;;;;;7.20;6.90;;;21.80;15.70;;;;;;5012286;28;20625;-75
2023/07/01 08:40:09;;;;;;;7.60;7.10;;;21.70;15.50;;;;;;5012076;28;20259;-76
2023/07/01 08:42:43;;;;;;;7.33;7.03;;;21.70;15.70;;;;;;5012911;28;20193;-77
2023/07/01 08:45:08;;;;;;;7.90;7.40;;;21.80;16.00;;;;;;5012103;28;20197;-78
2023/07/01 08:47:35;;;;;;;8.17;7.63;;;22.00;15.90;;;;;;5013506;28;20571;-77
2023/07/01 08:50:05;;;;;;;6.87;6.47;;;22.10;14.50;;;;;;5012530;28;20420;-77
2023/07/01 08:52:41;;;;;;;6.67;6.37;;;22.20;14.60;;;;;;5012957;28;20448;-76
2023/07/01 08:55:10;;;;;;;7.03;6.73;;;22.40;14.30;;;;;;5017603;28;20428;-76
2023/07/01 08:57:39;;;;;;;6.47;6.17;;;22.50;14.50;;;;;;5013414;28;20408;-76
2023/07/01 09:00:14;;;;;;;6.47;6.17;;;22.60;13.90;;;;;;5018958;28;20473;-76
2023/07/01 09:02:41;;;;;;;6.40;6.00;;;22.60;12.30;;;;;;5030988;28;20458;-75
2023/07/01 09:05:07;;;;;;;6.43;6.03;;;22.80;12.30;;;;;;5031458;28;20419;-77
2023/07/01 09:07:32;;;;;;;5.87;5.67;;;22.80;12.40;;;;;;5014229;28;20419;-76
2023/07/01 09:10:00;;;;;;;6.10;5.80;;;23.00;11.90;;;;;;5014120;28;20474;-76
2023/07/01 09:12:29;;;;;;;7.07;6.67;;;22.90;12.50;;;;;;5013106;28;20205;-76
2023/07/01 09:15:04;;;;;;;7.00;6.60;;;22.90;12.50;;;;;;5013026;28;20440;-77
2023/07/01 09:17:30;;;;;;;7.13;6.53;;;22.80;12.90;;;;;;5008503;28;20424;-77
2023/07/01 09:20:07;;;;;;;6.80;6.50;;;22.70;12.50;;;;;;5013087;28;20518;-75
2023/07/01 09:22:34;;;;;;;6.87;6.37;;;22.80;12.50;;;;;;5010909;28;20436;-75
2023/07/01 09:25:00;;;;;;;6.80;6.30;;;22.70;11.50;;;;;;5012290;28;20411;-75
2023/07/01 09:27:40;;;;;;;5.97;5.67;;;22.70;11.70;;;;;;5012243;28;20416;-76
2023/07/01 09:30:23;;;;;;;5.80;5.40;;;23.00;11.60;;;;;;5011299;28;20436;-76
2023/07/01 09:32:48;;;;;;;5.83;5.43;;;23.10;10.80;;;;;;5012163;28;20858;-75
2023/07/01 09:35:14;;;;;;;6.47;6.00;;;23.10;10.80;;;;;;5011488;28;20488;-76
2023/07/01 09:37:40;;;;;;;5.60;5.40;;;23.10;10.80;;;;;;5010420;28;20264;-77
2023/07/01 09:40:19;;;;;;;6.13;5.83;;;23.10;10.30;;;;;;5002149;28;20209;-76
2023/07/01 09:42:55;;;;;;;5.90;5.53;;;23.30;7.90;;;;;;4992530;28;20265;-76
2023/07/01 09:45:21;;;;;;;5.80;5.60;;;23.20;8.30;;;;;;5010786;28;20430;-75
2023/07/01 09:47:53;;;;;;;6.10;5.80;;;23.30;7.30;;;;;;5012197;28;20476;-75
2023/07/01 09:50:23;;;;;;;5.93;5.63;;;23.30;7.00;;;;;;5012376;28;20188;-76
2023/07/01 09:52:50;;;;;;;6.97;6.17;;;23.50;6.50;;;;;;5011592;28;20502;-76
2023/07/01 09:55:16;;;;;;;6.30;6.00;;;23.80;6.40;;;;;;5012086;28;20419;-76
2023/07/01 09:57:42;;;;;;;5.90;5.60;;;23.80;6.20;;;;;;5012070;28;20928;-75
2023/07/01 10:00:12;;;;;;;5.90;5.60;;;23.80;5.90;;;;;;5010429;28;20205;-74
2023/07/01 10:02:38;;;;;;;6.00;5.60;;;23.90;5.90;;;;;;5010967;28;20440;-75
2023/07/01 10:05:05;;;;;;;6.23;5.90;;;24.00;6.00;;;;;;5012140;28;20413;-74
2023/07/01 10:07:31;;;;;;;5.87;5.30;;;24.10;6.00;;;;;;5011911;28;20408;-76
2023/07/01 10:09:57;;;;;;;5.70;5.30;;;24.20;6.00;;;;;;5011370;28;20519;-77
2023/07/01 10:12:23;;;;;;;5.70;5.40;;;24.30;6.40;;;;;;5010410;28;20250;-77
2023/07/01 10:14:51;;;;;;;5.23;4.93;;;24.40;6.30;;;;;;5011340;28;20420;-76
2023/07/01 10:17:18;;;;;;;5.77;5.27;;;24.60;6.00;;;;;;5011456;28;20779;-75
2023/07/01 10:19:47;;;;;;;6.00;5.60;;;24.80;6.40;;;;;;5011002;28;20459;-77
2023/07/01 10:22:23;;;;;;;5.53;5.30;;;24.70;6.20;;;;;;5009412;28;20435;-77
2023/07/01 10:25:03;;;;;;;5.50;5.17;;;24.70;6.10;;;;;;5007281;28;20462;-77
2023/07/01 10:27:44;;;;;;;4.80;4.43;;;24.80;6.40;;;;;;5012135;28;20420;-77
2023/07/01 10:30:12;;;;;;;6.07;5.60;;;24.60;5.70;;;;;;5015101;28;20420;-76
2023/07/01 10:32:37;;;;;;;5.00;4.80;;;24.50;5.60;;;;;;5012676;28;20442;-77
2023/07/01 10:35:03;;;;;;;4.77;4.57;;;24.60;5.90;;;;;;5015201;28;20412;-76
2023/07/01 10:37:30;;;;;;;5.80;5.37;;;24.60;6.10;;;;;;5015217;28;20189;-77
2023/07/01 10:39:56;;;;;;;4.80;4.60;;;24.70;6.50;;;;;;5015631;28;20288;-77
2023/07/01 10:42:31;;;;;;;5.70;5.30;;;24.80;5.90;;;;;;5014953;28;20404;-77
2023/07/01 10:45:11;;;;;;;5.37;5.07;;;24.70;5.90;;;;;;5014538;28;20416;-77
2023/07/01 10:47:37;;;;;;;4.70;4.40;;;24.50;6.30;;;;;;5015406;28;20416;-77
2023/07/01 10:50:08;;;;;;;5.40;5.10;;;24.30;6.80;;;;;;5015329;28;20488;-77
2023/07/01 10:52:57;;;;;;;5.07;4.87;;;24.20;7.00;;;;;;5012629;28;20587;-77
2023/07/01 10:55:34;;;;;;;4.90;4.63;;;24.00;6.90;;;;;;5015279;28;20423;-77
2023/07/01 10:58:21;;;;;;;5.80;5.30;;;24.00;6.90;;;;;;5015516;28;20408;-77
2023/07/01 11:00:51;;;;;;;4.97;4.77;;;24.10;6.00;;;;;;5012828;28;20471;-77
2023/07/01 11:03:36;;;;;;;5.37;4.97;;;24.10;6.20;;;;;;5014844;28;20447;-78
2023/07/01 11:06:12;;;;;;;5.33;5.03;;;24.10;6.00;;;;;;5004296;28;20409;-79
2023/07/01 11:08:48;;;;;;;5.70;5.40;;;24.10;6.10;;;;;;5014804;28;20412;-78
2023/07/01 11:11:50;;;;;;;5.73;5.33;;;24.10;6.60;;;;;;5015636;28;20438;-79
2023/07/01 11:14:16;;;;;;;6.47;5.10;;;24.00;6.70;;;;;;5010688;28;20459;-77
2023/07/01 11:16:41;;;;;;;6.10;5.70;;;24.00;6.90;;;;;;5012774;28;20431;-77
2023/07/01 11:19:09;;;;;;;5.43;5.13;;;23.90;6.80;;;;;;5012848;28;20255;-77
2023/07/01 11:21:36;;;;;;;6.17;5.77;;;23.90;6.80;;;;;;5012703;28;20173;-77
2023/07/01 11:24:15;;;;;;;5.90;5.53;;;23.90;6.80;;;;;;5012734;28;20439;-77
2023/07/01 11:26:40;;;;;;;5.50;5.20;;;24.10;7.00;;;;;;5011762;28;20941;-76
2023/07/01 11:29:19;;;;;;;5.93;5.50;;;24.10;6.50;;;;;;5013124;28;20424;-77
2023/07/01 11:31:55;;;;;;;6.17;5.80;;;24.10;6.10;;;;;;5012833;28;20196;-78
2023/07/01 11:34:21;;;;;;;9.50;5.80;;;24.00;6.80;;;;;;5013753;28;20514;-77
2023/07/01 11:36:48;;;;;;;5.60;5.30;;;24.10;7.00;;;;;;5014810;28;20934;-79
2023/07/01 11:39:15;;;;;;;5.90;5.60;;;24.10;7.00;;;;;;5016764;28;20207;-78
2023/07/01 11:41:51;;;;;;;6.10;5.80;;;24.20;7.00;;;;;;5015066;28;20420;-79
2023/07/01 11:44:19;;;;;;;4.87;4.60;;;24.20;7.00;;;;;;5017009;28;20424;-79
2023/07/01 11:46:46;;;;;;;5.37;5.10;;;24.30;6.90;;;;;;5016979;28;20507;-78
2023/07/01 11:49:29;;;;;;;5.57;5.27;;;24.30;7.10;;;;;;5015480;28;20512;-77
2023/07/01 11:52:02;;;;;;;5.90;5.40;;;24.30;6.30;;;;;;5013527;28;20447;-78
2023/07/01 11:54:39;;;;;;;5.33;5.03;;;24.30;7.10;;;;;;5013180;28;20946;-79
2023/07/01 11:57:19;;;;;;;5.30;5.00;;;24.20;7.00;;;;;;5014110;28;20507;-77
2023/07/01 11:59:45;;;;;;;5.60;5.20;;;24.10;7.60;;;;;;5011091;28;20554;-77
2023/07/01 12:02:11;;;;;;;5.50;5.10;;;24.10;7.00;;;;;;5013411;28;20428;-77
2023/07/01 12:04:37;;;;;;;4.97;4.77;;;24.10;7.00;;;;;;5013049;28;20515;-77
2023/07/01 12:07:09;;;;;;;5.83;5.43;;;24.10;6.40;;;;;;5012995;28;20491;-77
2023/07/01 12:09:35;;;;;;;6.20;5.40;;;23.90;6.80;;;;;;5011507;28;20184;-77
2023/07/01 12:12:01;;;;;;;5.50;5.07;;;23.80;6.80;;;;;;5013201;28;20423;-77
2023/07/01 12:14:27;;;;;;;5.57;5.17;;;23.80;7.60;;;;;;5013933;28;20954;-78
2023/07/01 12:16:53;;;;;;;6.10;5.70;;;23.80;7.90;;;;;;5013092;28;20267;-77
2023/07/01 12:19:20;;;;;;;5.60;5.40;;;23.70;8.40;;;;;;5012594;28;20229;-78
2023/07/01 12:21:47;;;;;;;5.73;4.87;;;23.60;8.60;;;;;;5013242;28;20413;-77
2023/07/01 12:24:30;;;;;;;6.50;5.03;;;23.50;8.80;;;;;;5014156;28;21151;-77
2023/07/01 12:27:00;;;;;;;5.57;5.17;;;23.40;9.30;;;;;;5013635;28;20897;-77
2023/07/01 12:29:26;;;;;;;5.20;5.00;;;23.40;9.00;;;;;;5013785;28;20507;-77
2023/07/01 12:31:59;;;;;;;5.13;4.93;;;23.30;9.20;;;;;;5013062;28;20420;-77
2023/07/01 12:34:25;;;;;;;5.33;5.10;;;23.30;9.30;;;;;;5013121;28;20463;-78
2023/07/01 12:36:51;;;;;;;5.97;5.50;;;23.30;9.60;;;;;;5013585;28;20969;-77
2023/07/01 12:39:17;;;;;;;5.77;5.47;;;23.30;9.60;;;;;;5013520;28;20455;-78
2023/07/01 12:41:53;;;;;;;6.60;6.00;;;23.20;9.90;;;;;;5011694;28;20417;-77
2023/07/01 12:44:18;;;;;;;5.60;5.40;;;23.10;10.10;;;;;;5013592;28;20200;-77
2023/07/01 12:46:45;;;;;;;6.27;5.73;;;23.00;10.50;;;;;;5013400;28;20408;-78
2023/07/01 12:49:11;;;;;;;5.53;5.10;;;22.90;11.00;;;;;;5013362;28;20178;-76
2023/07/01 12:51:37;;;;;;;5.20;4.90;;;22.90;11.50;;;;;;5019057;28;20848;-78
2023/07/01 12:54:04;;;;;;;6.00;5.50;;;23.00;11.70;;;;;;5022391;28;20436;-78